createdAt,value
2023-03-23T15:58:12.663Z,4.28
2023-03-23T16:00:42.324Z,4.30
2023-03-23T16:03:19.468Z,4.53
2023-03-23T16:05:46.911Z,4.75
2023-03-23T16:08:14.892Z,4.38
2023-03-23T16:10:43.530Z,4.80
2023-03-23T16:13:11.797Z,4.68
2023-03-23T16:15:39.074Z,5.38
2023-03-23T16:18:06.473Z,4.57
2023-03-23T16:20:33.927Z,4.97
2023-03-23T16:23:01.221Z,5.20
2023-03-23T16:25:28.555Z,5.80
2023-03-23T16:27:55.992Z,5.55
2023-03-23T16:30:25.910Z,5.47
2023-03-23T16:32:55.551Z,5.90
2023-03-23T16:35:25.502Z,5.35
2023-03-23T16:38:07.330Z,5.50
2023-03-23T16:40:37.344Z,5.47
2023-03-23T16:43:08.770Z,5.55
2023-03-23T16:45:39.382Z,5.35
2023-03-23T16:48:09.381Z,5.30
2023-03-23T16:50:37.891Z,4.95
2023-03-23T16:53:07.638Z,4.50
2023-03-23T16:55:35.972Z,5.15
2023-03-23T16:58:15.403Z,5.35
2023-03-23T17:00:47.026Z,4.95
2023-03-23T17:03:16.364Z,4.57
2023-03-23T17:05:45.380Z,4.93
2023-03-23T17:08:12.950Z,5.47
2023-03-23T17:10:42.383Z,4.93
2023-03-23T17:13:10.234Z,4.65
2023-03-23T17:15:39.938Z,4.75
2023-03-23T17:18:07.941Z,4.40
2023-03-23T17:20:36.064Z,7.18
2023-03-23T17:23:03.731Z,6.55
2023-03-23T17:25:31.897Z,6.20
2023-03-23T17:28:05.433Z,5.90
2023-03-23T17:30:35.112Z,5.57
2023-03-23T17:33:02.713Z,4.95
2023-03-23T17:35:30.149Z,4.82
2023-03-23T17:37:57.504Z,5.22
2023-03-23T17:40:25.068Z,5.22
2023-03-23T17:42:52.347Z,5.93
2023-03-23T17:45:19.619Z,5.72
2023-03-23T17:47:47.020Z,4.95
2023-03-23T17:50:14.611Z,5.50
2023-03-23T17:52:43.622Z,4.53
2023-03-23T17:55:11.196Z,4.65
2023-03-23T17:57:39.068Z,4.93
2023-03-23T18:00:10.187Z,5.07
2023-03-23T18:02:37.760Z,4.88
2023-03-23T18:05:08.297Z,4.35
2023-03-23T18:07:36.432Z,4.95
2023-03-23T18:10:04.408Z,5.45
2023-03-23T18:12:31.710Z,4.65
2023-03-23T18:14:59.285Z,5.20
2023-03-23T18:17:27.226Z,5.10
2023-03-23T18:19:54.722Z,5.15
2023-03-23T18:22:22.104Z,5.10
2023-03-23T18:24:49.764Z,5.18
2023-03-23T18:27:17.397Z,5.35
2023-03-23T18:29:44.807Z,4.53
2023-03-23T18:32:12.523Z,5.57
2023-03-23T18:34:43.481Z,5.35
2023-03-23T18:37:10.999Z,5.20
2023-03-23T18:39:38.506Z,5.43
2023-03-23T18:42:06.725Z,5.05
2023-03-23T18:44:34.056Z,6.22
2023-03-23T18:47:01.321Z,5.68
2023-03-23T18:49:29.946Z,5.72
2023-03-23T18:51:57.197Z,4.90
2023-03-23T18:54:24.509Z,5.32
2023-03-23T18:56:51.844Z,5.10
2023-03-23T18:59:19.090Z,5.10
2023-03-23T19:01:46.469Z,5.25
2023-03-23T19:04:14.562Z,5.47
2023-03-23T19:06:42.085Z,5.75
2023-03-23T19:09:09.401Z,6.38
2023-03-23T19:11:36.765Z,5.97
2023-03-23T19:14:04.369Z,5.22
2023-03-23T19:16:35.832Z,5.40
2023-03-23T19:19:04.981Z,6.30
2023-03-23T19:21:32.697Z,5.32
2023-03-23T19:24:01.789Z,5.65
2023-03-23T19:26:36.968Z,5.53
2023-03-23T19:31:38.384Z,6.50
2023-03-23T19:34:06.437Z,5.40
2023-03-23T19:36:33.709Z,5.45
2023-03-23T19:39:02.878Z,6.45
2023-03-23T19:41:31.548Z,5.43
2023-03-23T19:43:59.491Z,5.78
2023-03-23T19:46:30.216Z,5.25
2023-03-23T19:48:58.984Z,6.15
2023-03-23T19:51:27.599Z,5.35
2023-03-23T19:53:57.615Z,5.88
2023-03-23T19:56:25.666Z,5.70
2023-03-23T19:58:53.024Z,5.53
2023-03-23T20:01:21.279Z,6.15
2023-03-23T20:03:48.628Z,6.00
2023-03-23T20:06:16.582Z,6.22
2023-03-23T20:08:47.641Z,6.68
2023-03-23T20:11:17.652Z,5.45
2023-03-23T20:13:46.004Z,5.50
2023-03-23T20:16:13.311Z,6.30
2023-03-23T20:18:41.119Z,6.03
2023-03-23T20:21:10.897Z,5.88
2023-03-23T20:23:40.368Z,5.72
2023-03-23T20:26:17.196Z,6.00
2023-03-23T20:28:45.849Z,5.88
2023-03-23T20:31:23.181Z,6.28
2023-03-23T20:34:00.553Z,5.85
2023-03-23T20:36:35.752Z,6.32
2023-03-23T20:39:12.391Z,6.55
2023-03-23T20:41:40.593Z,6.13
2023-03-23T20:44:13.735Z,6.93
2023-03-23T20:46:42.704Z,5.95
2023-03-23T20:49:10.218Z,6.10
2023-03-23T20:51:37.545Z,6.35
2023-03-23T20:54:06.056Z,6.32
2023-03-23T20:56:34.395Z,6.13
2023-03-23T20:59:02.505Z,6.13
2023-03-23T21:01:30.058Z,7.05
2023-03-23T21:03:57.948Z,6.40
2023-03-23T21:06:30.942Z,5.88
2023-03-23T21:08:58.349Z,5.78
2023-03-23T21:11:27.042Z,7.03
2023-03-23T21:13:54.544Z,6.80
2023-03-23T21:16:24.140Z,5.88
2023-03-23T21:18:51.637Z,5.32
2023-03-23T21:21:19.138Z,6.50
2023-03-23T21:23:47.634Z,6.07
2023-03-23T21:26:17.125Z,5.85
2023-03-23T21:28:45.091Z,6.90
2023-03-23T21:31:13.732Z,7.63
2023-03-23T21:33:41.384Z,6.28
2023-03-23T21:36:09.763Z,6.78
2023-03-23T21:38:38.397Z,6.70
2023-03-23T21:41:09.165Z,6.70
2023-03-23T21:43:36.874Z,6.30
2023-03-23T21:46:06.033Z,7.80
2023-03-23T21:48:33.286Z,6.28
2023-03-23T21:51:08.679Z,7.57
2023-03-23T21:53:37.147Z,6.47
2023-03-23T21:56:07.054Z,6.47
2023-03-23T21:58:34.575Z,6.45
2023-03-23T22:01:02.235Z,6.15
2023-03-23T22:03:35.316Z,6.88
2023-03-23T22:06:15.076Z,6.78
2023-03-23T22:08:44.439Z,6.95
2023-03-23T22:11:15.564Z,7.07
2023-03-23T22:13:43.092Z,7.35
2023-03-23T22:16:13.425Z,6.75
2023-03-23T22:18:43.285Z,6.65
2023-03-23T22:21:13.147Z,6.95
2023-03-23T22:23:41.424Z,7.53
2023-03-23T22:26:10.123Z,6.93
2023-03-23T22:28:38.573Z,7.10
2023-03-23T22:31:13.583Z,7.18
2023-03-23T22:33:40.902Z,6.53
2023-03-23T22:36:08.946Z,6.25
2023-03-23T22:38:39.345Z,5.97
2023-03-23T22:41:07.901Z,7.35
2023-03-23T22:43:36.849Z,6.47
2023-03-23T22:46:05.642Z,6.63
2023-03-23T22:48:33.543Z,6.32
2023-03-23T22:51:01.609Z,7.60
2023-03-23T22:53:29.121Z,8.00
2023-03-23T22:55:57.676Z,6.95
2023-03-23T22:58:26.913Z,6.70
2023-03-23T23:01:00.942Z,7.90
2023-03-23T23:03:29.514Z,9.13
2023-03-23T23:05:58.545Z,9.23
2023-03-23T23:08:27.853Z,7.55
2023-03-23T23:10:57.428Z,8.82
2023-03-23T23:13:25.482Z,8.60
2023-03-23T23:15:56.982Z,8.57
2023-03-23T23:18:26.130Z,8.82
2023-03-23T23:20:58.742Z,8.68
2023-03-23T23:23:27.348Z,9.02
2023-03-23T23:25:54.753Z,8.38
2023-03-23T23:28:22.888Z,8.90
2023-03-23T23:30:51.569Z,8.88
2023-03-23T23:33:20.012Z,8.80
2023-03-23T23:35:47.904Z,8.55
2023-03-23T23:38:16.652Z,9.50
2023-03-23T23:40:46.187Z,9.13
2023-03-23T23:43:15.806Z,9.00
2023-03-23T23:45:43.583Z,9.00
2023-03-23T23:48:12.529Z,9.40
2023-03-23T23:50:39.925Z,6.88
2023-03-23T23:53:09.936Z,7.30
2023-03-23T23:55:39.691Z,7.68
2023-03-23T23:58:07.330Z,7.88
